createdAt,value
2018-05-21T00:00:48.647Z,101159
2018-05-21T00:03:17.134Z,101153
2018-05-21T00:05:45.469Z,101160
2018-05-21T00:08:13.985Z,101159
2018-05-21T00:10:42.443Z,101152
2018-05-21T00:13:10.932Z,101154
2018-05-21T00:15:40.139Z,101155
2018-05-21T00:18:09.370Z,101155
2018-05-21T00:20:37.694Z,101153
2018-05-21T00:23:06.027Z,101147
2018-05-21T00:25:34.609Z,101148
2018-05-21T00:28:03.292Z,101148
2018-05-21T00:30:31.702Z,101147
2018-05-21T00:32:59.993Z,101143
2018-05-21T00:35:28.419Z,101145
2018-05-21T00:37:57.148Z,101142
2018-05-21T00:40:25.560Z,101147
2018-05-21T00:42:54.774Z,101142
2018-05-21T00:45:23.075Z,101143
2018-05-21T00:47:51.617Z,101145
2018-05-21T00:50:20.837Z,101142
2018-05-21T00:52:49.268Z,101139
2018-05-21T00:55:35.482Z,101133
2018-05-21T00:58:04.701Z,101137
2018-05-21T01:00:32.997Z,101131
2018-05-21T01:03:01.363Z,101129
2018-05-21T01:05:29.664Z,101127
2018-05-21T01:07:58.059Z,101122
2018-05-21T01:10:26.370Z,101130
2018-05-21T01:12:55.947Z,101126
2018-05-21T01:15:24.504Z,101121
2018-05-21T01:17:53.084Z,101125
2018-05-21T01:20:21.591Z,101128
2018-05-21T01:22:50.015Z,101123
2018-05-21T01:25:18.408Z,101125
2018-05-21T01:27:46.757Z,101125
2018-05-21T01:30:15.928Z,101123
2018-05-21T01:32:44.409Z,101122
2018-05-21T01:35:12.915Z,101118
2018-05-21T01:37:41.315Z,101124
2018-05-21T01:40:09.906Z,101114
2018-05-21T01:42:38.275Z,101114
2018-05-21T01:45:07.367Z,101117
2018-05-21T01:47:36.457Z,101115
2018-05-21T01:50:05.563Z,101112
2018-05-21T01:52:34.653Z,101116
2018-05-21T01:55:05.018Z,101116
2018-05-21T01:57:33.395Z,101115
2018-05-21T02:00:01.850Z,101110
2018-05-21T02:02:30.435Z,101101
2018-05-21T02:04:58.873Z,101101
2018-05-21T02:07:28.192Z,101104
2018-05-21T02:09:57.348Z,101106
2018-05-21T02:12:25.673Z,101099
2018-05-21T02:14:54.938Z,101097
2018-05-21T02:17:23.279Z,101095
2018-05-21T02:19:51.691Z,101095
2018-05-21T02:22:20.115Z,101093
2018-05-21T02:24:49.418Z,101100
2018-05-21T02:27:17.871Z,101093
2018-05-21T02:29:46.319Z,101088
2018-05-21T02:32:14.690Z,101095
2018-05-21T02:34:43.163Z,101092
2018-05-21T02:37:11.596Z,101095
2018-05-21T02:39:40.093Z,101098
2018-05-21T02:42:08.923Z,101097
2018-05-21T02:44:37.553Z,101094
2018-05-21T02:47:06.763Z,101101
2018-05-21T02:49:36.105Z,101090
2018-05-21T02:52:04.443Z,101087
2018-05-21T02:54:33.573Z,101083
2018-05-21T02:57:02.022Z,101090
2018-05-21T02:59:31.129Z,101090
2018-05-21T03:01:59.443Z,101091
2018-05-21T03:04:28.094Z,101091
2018-05-21T03:06:56.625Z,101083
2018-05-21T03:09:25.145Z,101083
2018-05-21T03:11:53.579Z,101090
2018-05-21T03:14:22.378Z,101082
2018-05-21T03:16:51.017Z,101085
2018-05-21T03:19:19.767Z,101087
2018-05-21T03:21:48.167Z,101083
2018-05-21T03:24:16.528Z,101085
2018-05-21T03:26:45.769Z,101084
2018-05-21T03:29:14.990Z,101085
2018-05-21T03:31:43.276Z,101089
2018-05-21T03:34:11.615Z,101079
2018-05-21T03:36:40.090Z,101075
2018-05-21T03:39:08.738Z,101081
2018-05-21T03:41:37.969Z,101078
2018-05-21T03:44:06.334Z,101082
2018-05-21T03:46:35.479Z,101082
2018-05-21T03:49:03.913Z,101077
2018-05-21T03:51:33.131Z,101079
2018-05-21T03:54:01.618Z,101079
2018-05-21T03:56:30.316Z,101079
2018-05-21T03:59:16.214Z,101077
2018-05-21T04:02:02.496Z,101081
2018-05-21T04:04:30.928Z,101073
2018-05-21T04:06:59.319Z,101071
2018-05-21T04:09:27.805Z,101071
2018-05-21T04:11:56.171Z,101067
2018-05-21T04:14:25.367Z,101067
2018-05-21T04:16:54.485Z,101060
2018-05-21T04:19:22.785Z,101059
2018-05-21T04:21:51.370Z,101055
2018-05-21T04:24:19.795Z,101062
2018-05-21T04:26:48.674Z,101062
2018-05-21T04:29:17.715Z,101059
2018-05-21T04:31:46.093Z,101063
2018-05-21T04:34:14.476Z,101063
2018-05-21T04:36:42.920Z,101064
2018-05-21T04:39:11.416Z,101065
2018-05-21T04:41:40.564Z,101058
2018-05-21T04:44:08.930Z,101060
2018-05-21T04:46:37.255Z,101060
2018-05-21T04:49:05.581Z,101062
2018-05-21T04:51:34.044Z,101064
2018-05-21T04:54:02.445Z,101064
2018-05-21T04:56:30.794Z,101060
2018-05-21T04:58:59.599Z,101057
2018-05-21T05:01:27.914Z,101049
2018-05-21T05:03:56.439Z,101060
2018-05-21T05:06:25.055Z,101051
2018-05-21T05:08:53.515Z,101053
2018-05-21T05:11:21.830Z,101051
2018-05-21T05:13:50.445Z,101046
2018-05-21T05:16:19.945Z,101050
2018-05-21T05:18:48.349Z,101049
2018-05-21T05:21:16.808Z,101043
2018-05-21T05:23:45.159Z,101044
2018-05-21T05:26:13.615Z,101046
2018-05-21T05:28:42.185Z,101039
2018-05-21T05:31:10.535Z,101033
2018-05-21T05:33:39.007Z,101032
2018-05-21T05:36:08.139Z,101032
2018-05-21T05:38:36.524Z,101033
2018-05-21T05:41:04.984Z,101026
2018-05-21T05:43:34.243Z,101025
2018-05-21T05:46:02.909Z,101024
2018-05-21T05:48:31.288Z,101025
2018-05-21T05:50:59.625Z,101025
2018-05-21T05:53:28.070Z,101022
2018-05-21T05:55:56.614Z,101026
2018-05-21T05:58:25.131Z,101022
2018-05-21T06:00:53.658Z,101022
2018-05-21T06:03:22.144Z,101020
2018-05-21T06:05:50.461Z,101011
2018-05-21T06:08:18.911Z,101008
2018-05-21T06:10:47.259Z,101006
2018-05-21T06:13:16.441Z,101008
2018-05-21T06:15:45.531Z,101005
2018-05-21T06:18:13.990Z,101003
2018-05-21T06:20:42.324Z,101000
2018-05-21T06:23:10.643Z,101003
2018-05-21T06:25:38.984Z,101003
2018-05-21T06:28:07.319Z,100999
2018-05-21T06:30:35.680Z,100996
2018-05-21T06:33:04.175Z,100992
2018-05-21T06:35:32.823Z,100998
2018-05-21T06:38:01.155Z,100999
2018-05-21T06:40:30.290Z,100994
2018-05-21T06:42:58.705Z,100996
2018-05-21T06:45:27.211Z,100997
2018-05-21T06:47:56.404Z,100997
2018-05-21T06:50:25.500Z,100995
2018-05-21T06:52:54.223Z,100999
2018-05-21T06:55:22.671Z,101001
2018-05-21T06:57:51.045Z,100998
2018-05-21T07:00:19.374Z,101005
2018-05-21T07:02:47.741Z,100999
2018-05-21T07:05:16.170Z,100995
2018-05-21T07:07:44.561Z,100995
2018-05-21T07:10:13.904Z,100992
2018-05-21T07:12:42.225Z,100993
2018-05-21T07:15:13.279Z,100997
2018-05-21T07:17:43.599Z,100986
2018-05-21T07:20:12.147Z,100981
2018-05-21T07:22:40.516Z,100977
2018-05-21T07:25:08.854Z,100972
2018-05-21T07:27:38.064Z,100964
2018-05-21T07:30:06.715Z,100961
2018-05-21T07:32:35.178Z,100961
2018-05-21T07:35:03.535Z,100957
2018-05-21T07:37:31.890Z,100952
2018-05-21T07:40:00.399Z,100952
2018-05-21T07:42:29.126Z,100944
2018-05-21T07:44:58.247Z,100942
2018-05-21T07:47:27.342Z,100941
2018-05-21T07:49:57.664Z,100934
2018-05-21T07:52:28.105Z,100938
2018-05-21T07:54:56.493Z,100931
2018-05-21T07:57:24.876Z,100930
2018-05-21T07:59:53.358Z,100928
2018-05-21T08:02:21.778Z,100923
2018-05-21T08:04:50.125Z,100920
2018-05-21T08:07:18.464Z,100922
2018-05-21T08:09:47.357Z,100923
2018-05-21T08:12:16.466Z,100917
2018-05-21T08:14:44.967Z,100921
2018-05-21T08:17:13.220Z,100914
2018-05-21T08:19:41.659Z,100914
2018-05-21T08:22:11.015Z,100909
2018-05-21T08:24:39.196Z,100905
2018-05-21T08:27:07.657Z,100899
2018-05-21T08:29:36.196Z,100903
2018-05-21T08:32:04.767Z,100904
2018-05-21T08:34:33.410Z,100895
2018-05-21T08:37:02.040Z,100891
2018-05-21T08:39:30.383Z,100880
2018-05-21T08:41:58.706Z,100893
2018-05-21T08:44:28.089Z,100886
2018-05-21T08:46:56.580Z,100886
2018-05-21T08:49:25.901Z,100882
2018-05-21T08:51:55.007Z,100874
2018-05-21T08:54:24.190Z,100872
2018-05-21T08:56:54.496Z,100875
2018-05-21T08:59:22.973Z,100866
2018-05-21T09:01:52.069Z,100864
2018-05-21T09:04:22.051Z,100854
2018-05-21T09:06:50.409Z,100859
2018-05-21T09:09:18.976Z,100848
2018-05-21T09:11:48.401Z,100851
2018-05-21T09:14:16.802Z,100849
2018-05-21T09:16:45.301Z,100850
2018-05-21T09:19:13.819Z,100841
2018-05-21T09:21:43.111Z,100839
2018-05-21T09:24:12.465Z,100841
2018-05-21T09:26:40.834Z,100834
2018-05-21T09:29:09.196Z,100831
2018-05-21T09:31:37.587Z,100819
2018-05-21T09:34:06.290Z,100817
2018-05-21T09:36:34.669Z,100811
2018-05-21T09:39:03.030Z,100803
2018-05-21T09:41:31.397Z,100810
2018-05-21T09:43:59.884Z,100806
2018-05-21T09:46:28.769Z,100797
2018-05-21T09:48:57.161Z,100797
2018-05-21T09:51:25.645Z,100792
2018-05-21T09:53:54.184Z,100783
2018-05-21T09:56:23.350Z,100782
2018-05-21T09:58:51.750Z,100786
2018-05-21T10:01:21.320Z,100781
2018-05-21T10:03:49.783Z,100778
2018-05-21T10:06:18.386Z,100772
2018-05-21T10:08:46.925Z,100773
2018-05-21T10:11:16.087Z,100771
2018-05-21T10:13:44.595Z,100767
2018-05-21T10:16:13.871Z,100764
2018-05-21T10:18:42.462Z,100763
2018-05-21T10:21:10.915Z,100758
2018-05-21T10:23:39.227Z,100761
2018-05-21T10:26:08.501Z,100750
2018-05-21T10:28:37.685Z,100754
2018-05-21T10:31:06.227Z,100751
2018-05-21T10:33:35.483Z,100745
2018-05-21T10:36:04.202Z,100752
2018-05-21T10:38:33.418Z,100745
2018-05-21T10:41:01.751Z,100739
2018-05-21T10:43:30.196Z,100738
2018-05-21T10:45:59.459Z,100729
2018-05-21T10:48:28.796Z,100730
2018-05-21T10:50:57.161Z,100724
2018-05-21T10:53:25.856Z,100726
2018-05-21T10:55:54.255Z,100724
2018-05-21T10:58:22.637Z,100721
2018-05-21T11:00:51.068Z,100711
2018-05-21T11:03:19.417Z,100711
2018-05-21T11:05:47.877Z,100708
2018-05-21T11:08:16.233Z,100704
2018-05-21T11:10:44.630Z,100696
2018-05-21T11:13:13.337Z,100696
2018-05-21T11:15:41.931Z,100688
2018-05-21T11:18:10.453Z,100688
2018-05-21T11:20:38.878Z,100682
2018-05-21T11:23:07.327Z,100689
2018-05-21T11:25:35.856Z,100671
2018-05-21T11:28:04.151Z,100673
2018-05-21T11:30:34.242Z,100668
2018-05-21T11:33:04.116Z,100664
2018-05-21T11:35:32.553Z,100655
2018-05-21T11:38:01.132Z,100663
2018-05-21T11:40:29.465Z,100666
2018-05-21T11:42:57.964Z,100672
2018-05-21T11:45:26.602Z,100655
2018-05-21T11:47:55.013Z,100648
2018-05-21T11:50:23.397Z,100644
2018-05-21T11:52:51.738Z,100641
2018-05-21T11:55:20.152Z,100644
2018-05-21T11:57:48.586Z,100638
2018-05-21T12:00:18.004Z,100640
2018-05-21T12:02:46.880Z,100632
2018-05-21T12:05:17.470Z,100625
2018-05-21T12:07:46.046Z,100630
2018-05-21T12:10:14.270Z,100619
2018-05-21T12:12:42.643Z,100621
2018-05-21T12:15:11.806Z,100613
2018-05-21T12:17:40.547Z,100619
2018-05-21T12:20:08.982Z,100613
2018-05-21T12:22:38.104Z,100609
2018-05-21T12:25:07.389Z,100614
2018-05-21T12:27:36.592Z,100611
2018-05-21T12:30:05.867Z,100614
2018-05-21T12:32:34.216Z,100611
2018-05-21T12:35:02.563Z,100598
2018-05-21T12:37:30.947Z,100597
2018-05-21T12:39:59.433Z,100591
2018-05-21T12:42:28.108Z,100603
2018-05-21T12:44:56.434Z,100603
2018-05-21T12:47:25.078Z,100602
2018-05-21T12:49:53.676Z,100587
2018-05-21T12:52:22.031Z,100600
2018-05-21T12:54:51.244Z,100590
2018-05-21T12:57:19.718Z,100588
2018-05-21T12:59:48.092Z,100600
2018-05-21T13:02:16.538Z,100583
2018-05-21T13:04:45.122Z,100590
2018-05-21T13:07:13.751Z,100588
2018-05-21T13:09:42.492Z,100585
2018-05-21T13:12:10.953Z,100588
2018-05-21T13:14:39.321Z,100586
2018-05-21T13:17:07.733Z,100581
2018-05-21T13:19:36.382Z,100575
2018-05-21T13:22:04.853Z,100574
2018-05-21T13:24:33.201Z,100561
2018-05-21T13:27:01.736Z,100560
2018-05-21T13:29:30.702Z,100557
2018-05-21T13:31:59.117Z,100558
2018-05-21T13:34:28.363Z,100555
2018-05-21T13:36:58.809Z,100555
2018-05-21T13:39:27.246Z,100561
2018-05-21T13:41:56.467Z,100547
2018-05-21T13:44:24.836Z,100548
2018-05-21T13:46:53.243Z,100548
2018-05-21T13:49:21.578Z,100542
2018-05-21T13:51:50.828Z,100537
2018-05-21T13:54:19.405Z,100528
2018-05-21T13:56:47.939Z,100524
2018-05-21T13:59:17.287Z,100526
2018-05-21T14:01:45.735Z,100519
2018-05-21T14:04:14.878Z,100514
2018-05-21T14:06:43.253Z,100518
2018-05-21T14:09:11.617Z,100512
2018-05-21T14:11:40.079Z,100505
2018-05-21T14:14:08.829Z,100513
2018-05-21T14:16:37.343Z,100504
2018-05-21T14:19:06.017Z,100505
2018-05-21T14:21:34.475Z,100507
2018-05-21T14:24:03.291Z,100496
2018-05-21T14:26:31.781Z,100494
2018-05-21T14:29:00.255Z,100489
2018-05-21T14:31:28.938Z,100487
2018-05-21T14:33:57.437Z,100489
2018-05-21T14:36:25.842Z,100484
2018-05-21T14:38:54.317Z,100489
2018-05-21T14:41:22.787Z,100489
2018-05-21T14:43:51.201Z,100471
2018-05-21T14:46:19.838Z,100468
2018-05-21T14:48:48.207Z,100477
2018-05-21T14:51:16.712Z,100470
2018-05-21T14:53:45.252Z,100468
2018-05-21T14:56:14.567Z,100463
2018-05-21T14:58:43.138Z,100465
2018-05-21T15:01:11.518Z,100461
2018-05-21T15:03:40.619Z,100459
2018-05-21T15:06:08.970Z,100458
2018-05-21T15:08:37.398Z,100456
2018-05-21T15:11:05.774Z,100448
2018-05-21T15:13:34.290Z,100451
2018-05-21T15:16:02.644Z,100444
2018-05-21T15:18:31.018Z,100442
2018-05-21T15:20:59.400Z,100445
2018-05-21T15:23:27.772Z,100437
2018-05-21T15:25:56.257Z,100433
2018-05-21T15:28:24.712Z,100432
2018-05-21T15:30:53.338Z,100437
2018-05-21T15:33:21.718Z,100430
2018-05-21T15:35:50.358Z,100426
2018-05-21T15:38:18.955Z,100421
2018-05-21T15:40:47.323Z,100425
2018-05-21T15:43:15.836Z,100422
2018-05-21T15:45:44.214Z,100422
2018-05-21T15:48:12.559Z,100422
2018-05-21T15:50:41.903Z,100414
2018-05-21T15:53:10.252Z,100416
2018-05-21T15:55:38.618Z,100415
2018-05-21T15:58:07.323Z,100407
2018-05-21T16:00:35.881Z,100412
2018-05-21T16:03:04.312Z,100415
2018-05-21T16:05:32.697Z,100414
2018-05-21T16:08:01.107Z,100409
2018-05-21T16:10:29.538Z,100406
2018-05-21T16:12:57.989Z,100411
2018-05-21T16:15:26.445Z,100414
2018-05-21T16:17:54.959Z,100410
2018-05-21T16:20:23.306Z,100411
2018-05-21T16:22:51.745Z,100408
2018-05-21T16:25:20.099Z,100408
2018-05-21T16:27:48.860Z,100406
2018-05-21T16:30:17.287Z,100400
2018-05-21T16:32:46.577Z,100400
2018-05-21T16:35:14.928Z,100392
2018-05-21T16:37:44.543Z,100394
2018-05-21T16:40:12.997Z,100394
2018-05-21T16:42:41.402Z,100387
2018-05-21T16:45:10.205Z,100394
2018-05-21T16:47:38.672Z,100390
2018-05-21T16:50:07.072Z,100380
2018-05-21T16:52:36.273Z,100379
2018-05-21T16:55:05.416Z,100377
2018-05-21T16:57:33.940Z,100386
2018-05-21T17:00:02.384Z,100380
2018-05-21T17:02:30.943Z,100383
2018-05-21T17:05:00.147Z,100381
2018-05-21T17:07:29.564Z,100381
2018-05-21T17:09:57.994Z,100382
2018-05-21T17:12:26.422Z,100380
2018-05-21T17:14:57.549Z,100383
2018-05-21T17:17:27.719Z,100381
2018-05-21T17:19:58.585Z,100373
2018-05-21T17:22:27.186Z,100372
2018-05-21T17:24:55.568Z,100378
2018-05-21T17:27:24.054Z,100377
2018-05-21T17:29:52.584Z,100372
2018-05-21T17:34:57.829Z,100377
2018-05-21T17:37:26.979Z,100383
2018-05-21T17:39:55.383Z,100377
2018-05-21T17:42:24.155Z,100385
2018-05-21T17:44:52.484Z,100388
2018-05-21T17:47:20.882Z,100396
2018-05-21T17:49:49.753Z,100398
2018-05-21T17:52:18.221Z,100392
2018-05-21T17:54:47.474Z,100385
2018-05-21T17:57:16.012Z,100392
2018-05-21T17:59:44.741Z,100395
2018-05-21T18:02:13.142Z,100398
2018-05-21T18:04:41.582Z,100398
2018-05-21T18:07:10.062Z,100402
2018-05-21T18:09:38.434Z,100398
2018-05-21T18:12:07.215Z,100405
2018-05-21T18:14:35.781Z,100406
2018-05-21T18:17:04.991Z,100404
2018-05-21T18:19:33.317Z,100401
2018-05-21T18:22:01.837Z,100402
2018-05-21T18:24:32.100Z,100414
2018-05-21T18:27:00.547Z,100405
2018-05-21T18:29:28.938Z,100397
2018-05-21T18:31:57.324Z,100404
2018-05-21T18:34:25.982Z,100403
2018-05-21T18:36:54.539Z,100405
2018-05-21T18:39:23.683Z,100407
2018-05-21T18:41:52.049Z,100406
2018-05-21T18:44:20.414Z,100404
2018-05-21T18:46:49.764Z,100413
2018-05-21T18:49:18.919Z,100414
2018-05-21T18:51:47.325Z,100414
2018-05-21T18:54:15.914Z,100417
2018-05-21T18:56:45.775Z,100423
2018-05-21T18:59:14.474Z,100417
2018-05-21T19:01:42.944Z,100418
2018-05-21T19:04:11.397Z,100424
2018-05-21T19:06:40.002Z,100425
2018-05-21T19:09:08.495Z,100423
2018-05-21T19:11:36.898Z,100422
2018-05-21T19:14:05.328Z,100427
2018-05-21T19:16:33.680Z,100425
2018-05-21T19:19:03.208Z,100426
2018-05-21T19:21:31.602Z,100429
2018-05-21T19:23:59.958Z,100428
2018-05-21T19:26:28.349Z,100433
2018-05-21T19:28:57.875Z,100437
2018-05-21T19:31:26.315Z,100438
2018-05-21T19:33:54.695Z,100440
2018-05-21T19:36:23.073Z,100442
2018-05-21T19:38:51.698Z,100445
2018-05-21T19:41:20.358Z,100440
2018-05-21T19:43:48.730Z,100443
2018-05-21T19:46:17.216Z,100446
2018-05-21T19:48:45.598Z,100445
2018-05-21T19:51:14.010Z,100442
2018-05-21T19:53:42.470Z,100450
2018-05-21T19:56:11.612Z,100451
2018-05-21T19:58:40.081Z,100456
2018-05-21T20:01:08.435Z,100457
2018-05-21T20:03:37.170Z,100454
2018-05-21T20:06:05.758Z,100461
2018-05-21T20:08:34.143Z,100459
2018-05-21T20:11:02.516Z,100466
2018-05-21T20:13:30.963Z,100463
2018-05-21T20:16:00.383Z,100466
2018-05-21T20:18:35.029Z,100466
2018-05-21T20:21:03.412Z,100463
2018-05-21T20:23:31.810Z,100468
2018-05-21T20:26:00.205Z,100459
2018-05-21T20:28:28.689Z,100459
2018-05-21T20:30:57.986Z,100466
2018-05-21T20:33:27.244Z,100466
2018-05-21T20:35:55.747Z,100461
2018-05-21T20:38:24.208Z,100464
2018-05-21T20:40:52.655Z,100465
2018-05-21T20:43:21.180Z,100468
2018-05-21T20:45:49.739Z,100469
2018-05-21T20:48:18.321Z,100467
2018-05-21T20:50:46.808Z,100464
2018-05-21T20:53:15.388Z,100468
2018-05-21T20:55:43.887Z,100464
2018-05-21T20:58:12.628Z,100467
2018-05-21T21:00:41.083Z,100464
2018-05-21T21:03:09.564Z,100465
2018-05-21T21:05:37.982Z,100463
2018-05-21T21:08:07.513Z,100464
2018-05-21T21:10:36.037Z,100464
2018-05-21T21:13:05.213Z,100462
2018-05-21T21:15:33.600Z,100463
2018-05-21T21:18:02.161Z,100466
2018-05-21T21:20:30.892Z,100465
2018-05-21T21:23:00.079Z,100462
2018-05-21T21:25:29.236Z,100457
2018-05-21T21:27:57.593Z,100460
2018-05-21T21:30:25.992Z,100462
2018-05-21T21:32:54.399Z,100460
2018-05-21T21:35:22.915Z,100460
2018-05-21T21:37:51.280Z,100465
2018-05-21T21:40:21.594Z,100432
2018-05-21T21:42:50.844Z,100460
2018-05-21T21:45:19.480Z,100459
2018-05-21T21:47:48.618Z,100453
2018-05-21T21:50:17.186Z,100452
2018-05-21T21:52:45.744Z,100454
2018-05-21T21:55:14.959Z,100450
2018-05-21T21:57:43.308Z,100453
2018-05-21T22:00:12.416Z,100452
2018-05-21T22:02:41.520Z,100454
2018-05-21T22:05:10.779Z,100449
2018-05-21T22:07:39.236Z,100454
2018-05-21T22:10:07.700Z,100444
2018-05-21T22:12:36.123Z,100444
2018-05-21T22:15:07.238Z,100417
2018-05-21T22:17:35.584Z,100442
2018-05-21T22:20:04.760Z,100443
2018-05-21T22:22:33.311Z,100445
2018-05-21T22:25:01.779Z,100443
2018-05-21T22:27:30.175Z,100434
2018-05-21T22:29:58.597Z,100430
2018-05-21T22:32:27.790Z,100429
2018-05-21T22:34:56.894Z,100429
2018-05-21T22:37:25.297Z,100428
2018-05-21T22:39:53.779Z,100430
2018-05-21T22:42:22.350Z,100424
2018-05-21T22:44:50.666Z,100422
2018-05-21T22:47:18.988Z,100421
2018-05-21T22:49:48.300Z,100421
2018-05-21T22:52:16.794Z,100420
2018-05-21T22:54:45.509Z,100421
2018-05-21T22:57:13.870Z,100415
2018-05-21T22:59:42.390Z,100413
2018-05-21T23:02:10.828Z,100412
2018-05-21T23:04:39.327Z,100414
2018-05-21T23:07:07.743Z,100406
2018-05-21T23:09:36.146Z,100408
2018-05-21T23:12:04.569Z,100409
2018-05-21T23:14:33.349Z,100406
2018-05-21T23:17:02.578Z,100403
2018-05-21T23:19:31.739Z,100406
2018-05-21T23:22:00.204Z,100406
2018-05-21T23:24:28.495Z,100402
2018-05-21T23:26:56.866Z,100397
2018-05-21T23:29:25.165Z,100397
2018-05-21T23:31:53.518Z,100400
2018-05-21T23:34:21.844Z,100396
2018-05-21T23:36:50.338Z,100394
2018-05-21T23:39:18.697Z,100394
2018-05-21T23:41:47.837Z,100393
2018-05-21T23:44:18.144Z,100369
2018-05-21T23:46:47.448Z,100390
2018-05-21T23:49:16.584Z,100393
2018-05-21T23:51:44.864Z,100389
2018-05-21T23:54:13.204Z,100388
2018-05-21T23:56:42.383Z,100381
2018-05-21T23:59:11.519Z,100384
